Time;durP1;ratioP1;P1;durP2;ratioP2;P2;SDS_P1;SDS_P2;PMS_P1;PMS_P2;Temp;Humidity;BMP_temperature;BMP_pressure;BME280_temperature;BME280_humidity;BME280_pressure;Samples;Min_cycle;Max_cycle;Signal;HPM_P1;HPM_P2
2022/03/01 00:02:00;;;;;;;19.27;10.43;;;;;;;;;;5030290;28;20481;-73
2022/03/01 00:04:26;;;;;;;16.23;10.20;;;;;;;;;;5013935;28;20042;-73
2022/03/01 00:06:53;;;;;;;14.82;10.38;;;;;;;;;;5013700;28;20042;-73
2022/03/01 00:09:19;;;;;;;18.38;10.20;;;;;;;;;;5030688;28;20520;-74
2022/03/01 00:11:45;;;;;;;16.20;10.90;;;;;;;;;;5013922;28;20045;-74
2022/03/01 00:14:11;;;;;;;16.13;10.23;;;;;;;;;;5030096;28;20120;-73
2022/03/01 00:16:37;;;;;;;17.88;10.10;;;;;;;;;;4997451;28;20111;-74
2022/03/01 00:19:03;;;;;;;16.05;10.02;;;;;;;;;;5013905;28;20124;-73
2022/03/01 00:21:29;;;;;;;17.73;10.52;;;;;;;;;;5030176;28;20053;-73
2022/03/01 00:23:56;;;;;;;17.67;10.13;;;;;;;;;;5029989;28;20041;-72
2022/03/01 00:26:22;;;;;;;15.52;9.95;;;;;;;;;;5029951;28;20049;-72
2022/03/01 00:28:48;;;;;;;15.73;9.75;;;;;;;;;;5029961;28;20045;-72
2022/03/01 00:31:15;;;;;;;16.40;10.25;;;;;;;;;;5013543;28;20049;-73
2022/03/01 00:33:42;;;;;;;16.00;10.13;;;;;;;;;;5030144;28;20048;-73
2022/03/01 00:36:08;;;;;;;16.13;9.57;;;;;;;;;;5013602;28;20115;-72
2022/03/01 00:38:34;;;;;;;15.52;11.00;;;;;;;;;;5030235;28;20042;-72
2022/03/01 00:41:00;;;;;;;20.20;10.65;;;;;;;;;;5030009;28;20148;-72
2022/03/01 00:43:26;;;;;;;17.58;11.20;;;;;;;;;;5029990;28;20128;-74
2022/03/01 00:45:53;;;;;;;15.10;10.27;;;;;;;;;;5029720;28;20049;-73
2022/03/01 00:48:20;;;;;;;16.92;10.60;;;;;;;;;;5030182;28;20042;-73
2022/03/01 00:50:46;;;;;;;17.60;10.50;;;;;;;;;;5029612;28;20045;-73
2022/03/01 00:53:12;;;;;;;18.33;10.95;;;;;;;;;;5013405;28;20396;-73
2022/03/01 00:55:39;;;;;;;14.80;9.95;;;;;;;;;;5013232;28;20048;-73
2022/03/01 00:58:05;;;;;;;17.33;10.85;;;;;;;;;;5029809;28;20079;-73
2022/03/01 01:00:32;;;;;;;16.02;10.48;;;;;;;;;;5014876;28;20570;-73
2022/03/01 01:02:58;;;;;;;17.13;10.18;;;;;;;;;;5017217;28;20045;-73
2022/03/01 01:05:24;;;;;;;15.48;10.02;;;;;;;;;;5033365;28;20052;-73
2022/03/01 01:07:50;;;;;;;14.90;10.00;;;1.90;99.90;;;;;;5033225;28;20111;-73
2022/03/01 01:10:16;;;;;;;19.20;10.80;;;1.80;99.90;;;;;;5033604;28;20076;-73
2022/03/01 01:12:42;;;;;;;14.77;9.70;;;1.60;99.90;;;;;;5033209;28;20041;-73
2022/03/01 01:15:10;;;;;;;17.27;9.55;;;1.70;99.90;;;;;;5016663;28;20095;-73
2022/03/01 01:17:36;;;;;;;14.38;9.30;;;;;;;;;;5033540;28;20043;-73
2022/03/01 01:20:03;;;;;;;16.42;10.60;;;;;;;;;;5033041;28;20041;-73
2022/03/01 01:22:41;;;;;;;15.40;9.90;;;;;;;;;;5016900;28;20545;-73
2022/03/01 01:25:09;;;;;;;17.08;9.88;;;;;;;;;;5016643;28;20449;-73
2022/03/01 01:27:36;;;;;;;16.63;10.48;;;1.30;99.90;;;;;;5016497;28;20419;-73
2022/03/01 01:30:05;;;;;;;14.45;9.88;;;1.40;99.90;;;;;;5032983;28;20483;-73
2022/03/01 01:32:30;;;;;;;16.33;10.60;;;1.20;99.90;;;;;;5032882;28;20038;-73
2022/03/01 01:34:56;;;;;;;15.50;10.15;;;2.30;99.90;;;;;;5016610;28;20119;-73
2022/03/01 01:37:22;;;;;;;17.30;11.05;;;2.00;99.90;;;;;;5016248;28;20042;-73
2022/03/01 01:39:47;;;;;;;17.50;10.40;;;1.50;99.90;;;;;;5000236;28;20468;-73
2022/03/01 01:42:13;;;;;;;14.98;9.82;;;1.30;99.90;;;;;;5016342;28;20041;-73
2022/03/01 01:44:42;;;;;;;18.00;10.57;;;1.10;99.90;;;;;;5032615;28;20466;-73
2022/03/01 01:47:07;;;;;;;15.45;10.05;;;1.20;99.90;;;;;;5032534;28;20081;-73
2022/03/01 01:49:34;;;;;;;15.18;10.15;;;1.30;99.90;;;;;;5032572;28;20476;-73
2022/03/01 01:51:59;;;;;;;15.90;10.25;;;1.20;99.90;;;;;;5016230;28;20127;-74
2022/03/01 01:54:25;;;;;;;17.65;10.68;;;1.30;99.90;;;;;;5016050;28;20038;-73
2022/03/01 01:56:51;;;;;;;14.63;10.45;;;1.20;99.90;;;;;;4999868;28;20051;-72
2022/03/01 01:59:16;;;;;;;16.08;10.35;;;1.20;99.90;;;;;;5033687;28;20048;-72
2022/03/01 02:01:42;;;;;;;18.58;11.13;;;1.20;99.90;;;;;;5032539;28;20041;-72
2022/03/01 02:04:08;;;;;;;16.52;10.27;;;1.00;99.90;;;;;;5015800;28;20091;-73
2022/03/01 02:06:48;;;;;;;16.83;10.85;;;1.10;99.90;;;;;;5015664;28;20041;-73
2022/03/01 02:09:14;;;;;;;18.20;10.85;;;1.60;99.90;;;;;;5032735;28;20044;-72
2022/03/01 02:11:40;;;;;;;16.83;11.13;;;1.20;99.90;;;;;;5031383;28;20045;-73
2022/03/01 02:14:05;;;;;;;19.08;11.30;;;1.10;99.90;;;;;;5032377;28;20402;-73
2022/03/01 02:16:31;;;;;;;17.70;10.68;;;0.90;99.90;;;;;;5032239;28;20045;-72
2022/03/01 02:18:58;;;;;;;16.60;10.65;;;1.10;99.90;;;;;;5015668;28;20045;-72
2022/03/01 02:21:23;;;;;;;15.82;10.32;;;1.20;99.90;;;;;;5032029;28;20080;-73
2022/03/01 02:23:49;;;;;;;16.55;11.27;;;1.30;99.90;;;;;;4999434;28;20088;-72
2022/03/01 02:26:15;;;;;;;18.20;11.55;;;1.10;99.90;;;;;;5032233;28;20057;-72
2022/03/01 02:28:40;;;;;;;15.60;10.05;;;1.50;99.90;;;;;;5015192;28;20083;-72
2022/03/01 02:31:06;;;;;;;18.33;10.25;;;1.10;99.90;;;;;;5031630;28;20409;-72
2022/03/01 02:33:32;;;;;;;15.32;10.45;;;1.60;99.90;;;;;;5031677;28;20053;-72
2022/03/01 02:35:57;;;;;;;16.98;11.02;;;1.20;99.90;;;;;;5015767;28;20037;-73
2022/03/01 02:38:23;;;;;;;18.60;11.63;;;1.30;99.90;;;;;;5015487;28;20037;-72
2022/03/01 02:40:49;;;;;;;19.17;11.13;;;1.30;99.90;;;;;;5031565;28;20114;-73
2022/03/01 02:43:16;;;;;;;19.05;11.27;;;0.90;99.90;;;;;;5031474;28;20412;-72
2022/03/01 02:45:41;;;;;;;17.67;10.68;;;1.10;99.90;;;;;;5031377;28;20421;-73
2022/03/01 02:48:07;;;;;;;16.60;10.15;;;1.20;99.90;;;;;;5031343;28;20044;-72
2022/03/01 02:50:33;;;;;;;17.30;10.77;;;1.30;99.90;;;;;;5031925;28;20401;-73
2022/03/01 02:52:59;;;;;;;16.88;10.55;;;1.00;99.90;;;;;;5031186;28;20041;-72
2022/03/01 02:55:24;;;;;;;19.90;11.65;;;1.20;99.90;;;;;;5015122;28;20464;-72
2022/03/01 02:57:50;;;;;;;16.08;10.93;;;1.60;99.90;;;;;;5031316;28;20064;-73
2022/03/01 03:00:16;;;;;;;19.30;11.05;;;1.30;99.90;;;;;;5031252;28;20045;-73
2022/03/01 03:02:43;;;;;;;17.48;11.52;;;1.30;99.90;;;;;;4998379;28;20073;-73
2022/03/01 03:05:09;;;;;;;20.67;11.05;;;1.30;99.90;;;;;;4998448;28;20091;-72
2022/03/01 03:07:35;;;;;;;18.48;11.20;;;1.60;99.90;;;;;;5030995;28;20053;-72
2022/03/01 03:10:01;;;;;;;18.70;11.80;;;1.30;99.90;;;;;;5030952;28;20045;-72
2022/03/01 03:12:28;;;;;;;20.95;11.60;;;1.80;99.90;;;;;;5030984;28;20037;-72
2022/03/01 03:14:53;;;;;;;18.80;11.18;;;1.80;99.90;;;;;;5031185;28;20516;-72
2022/03/01 03:17:19;;;;;;;16.88;11.20;;;1.60;99.90;;;;;;5014641;28;20136;-72
2022/03/01 03:19:45;;;;;;;17.13;10.98;;;1.40;99.90;;;;;;5014525;28;20489;-72
2022/03/01 03:22:10;;;;;;;16.77;10.82;;;1.60;99.90;;;;;;5014401;28;20049;-72
2022/03/01 03:24:36;;;;;;;18.10;10.75;;;1.60;99.90;;;;;;5031819;28;20401;-72
2022/03/01 03:27:02;;;;;;;18.15;11.40;;;1.80;99.90;;;;;;4998043;28;20053;-72
2022/03/01 03:29:28;;;;;;;18.00;11.40;;;1.60;99.90;;;;;;4998013;28;20033;-73
2022/03/01 03:31:57;;;;;;;21.83;11.57;;;2.20;99.90;;;;;;5014125;28;20120;-72
2022/03/01 03:34:24;;;;;;;18.77;11.32;;;1.90;99.90;;;;;;5031051;28;20405;-72
2022/03/01 03:36:50;;;;;;;18.67;11.45;;;1.80;99.90;;;;;;5030763;28;20409;-72
2022/03/01 03:39:15;;;;;;;20.13;11.65;;;1.90;99.90;;;;;;5014554;28;20045;-72
2022/03/01 03:41:41;;;;;;;20.35;12.60;;;1.70;99.90;;;;;;5030527;28;20042;-72
2022/03/01 03:44:07;;;;;;;17.38;10.85;;;1.90;99.90;;;;;;4998155;28;20151;-72
2022/03/01 03:46:34;;;;;;;19.85;11.82;;;2.10;99.90;;;;;;5030507;28;20047;-72
2022/03/01 03:49:00;;;;;;;17.60;11.70;;;2.00;99.90;;;;;;5030566;28;20128;-72
2022/03/01 03:51:26;;;;;;;16.75;11.18;;;1.90;99.90;;;;;;5014082;28;20073;-72
2022/03/01 03:53:52;;;;;;;17.17;11.93;;;1.90;99.90;;;;;;5014411;28;20398;-73
2022/03/01 03:56:18;;;;;;;18.95;11.30;;;2.00;99.90;;;;;;4997920;28;20081;-73
2022/03/01 03:58:44;;;;;;;18.02;10.93;;;2.40;99.90;;;;;;5013820;28;20037;-73
2022/03/01 04:01:10;;;;;;;22.42;12.45;;;2.00;99.90;;;;;;5030296;28;20088;-73
2022/03/01 04:03:36;;;;;;;21.95;12.73;;;1.90;99.90;;;;;;5013871;28;20096;-73
2022/03/01 04:06:03;;;;;;;15.90;11.18;;;1.80;99.90;;;;;;5014010;28;20048;-73
2022/03/01 04:08:29;;;;;;;18.38;12.07;;;1.80;99.90;;;;;;5030088;28;20044;-73
2022/03/01 04:10:56;;;;;;;20.35;11.70;;;2.00;99.90;;;;;;5014074;28;20045;-74
2022/03/01 04:13:23;;;;;;;19.48;11.70;;;2.20;99.90;;;;;;5030479;28;20037;-73
2022/03/01 04:15:49;;;;;;;19.23;12.32;;;1.90;99.90;;;;;;5030519;28;20492;-74
2022/03/01 04:18:15;;;;;;;16.95;11.48;;;2.00;99.90;;;;;;5030509;28;20100;-73
2022/03/01 04:20:41;;;;;;;18.52;11.82;;;1.90;99.90;;;;;;5013690;28;20048;-73
2022/03/01 04:23:07;;;;;;;18.55;12.07;;;2.10;99.90;;;;;;5030271;28;20481;-73
2022/03/01 04:25:32;;;;;;;18.77;10.93;;;2.00;99.90;;;;;;5014130;28;20396;-74
2022/03/01 04:27:58;;;;;;;18.52;11.68;;;2.10;99.90;;;;;;5030407;28;20052;-73
2022/03/01 04:30:24;;;;;;;17.83;11.90;;;2.00;99.90;;;;;;5013510;28;20089;-71
2022/03/01 04:32:50;;;;;;;18.00;11.35;;;2.00;99.90;;;;;;5013853;28;20047;-72
2022/03/01 04:35:16;;;;;;;18.55;11.68;;;2.00;99.90;;;;;;5030837;28;20096;-72
2022/03/01 04:37:42;;;;;;;18.85;11.73;;;1.70;99.90;;;;;;5034097;28;20140;-72
2022/03/01 04:40:11;;;;;;;20.48;11.85;;;2.00;99.90;;;;;;5033742;28;20394;-72
2022/03/01 04:42:36;;;;;;;20.50;11.15;;;1.80;99.90;;;;;;5033874;28;20494;-72
2022/03/01 04:45:05;;;;;;;19.58;11.60;;;2.60;99.90;;;;;;5017604;28;20095;-72
2022/03/01 04:47:30;;;;;;;19.45;11.60;;;1.90;99.90;;;;;;5033763;28;20408;-72
2022/03/01 04:49:56;;;;;;;21.50;12.52;;;1.90;99.90;;;;;;5017131;28;20129;-72
2022/03/01 04:52:22;;;;;;;17.98;12.15;;;2.20;99.90;;;;;;5033577;28;20038;-72
2022/03/01 04:54:48;;;;;;;18.88;11.75;;;1.80;99.90;;;;;;5017012;28;20151;-72
2022/03/01 04:57:13;;;;;;;20.08;10.80;;;2.00;99.90;;;;;;5017431;28;20466;-73
2022/03/01 04:59:39;;;;;;;20.17;11.77;;;2.10;99.90;;;;;;5017147;28;20049;-73
2022/03/01 05:02:05;;;;;;;19.05;11.57;;;2.50;99.90;;;;;;5033493;28;20197;-73
2022/03/01 05:04:30;;;;;;;17.95;11.27;;;3.30;99.90;;;;;;5033653;28;20081;-73
2022/03/01 05:06:56;;;;;;;20.88;11.65;;;2.10;99.90;;;;;;5000627;28;20129;-73
2022/03/01 05:09:22;;;;;;;16.67;10.85;;;2.20;99.90;;;;;;5016825;28;20401;-73
2022/03/01 05:11:50;;;;;;;18.92;11.45;;;2.70;99.90;;;;;;5033215;28;20044;-73
2022/03/01 05:14:17;;;;;;;23.20;12.82;;;1.80;99.90;;;;;;5033397;28;20405;-73
2022/03/01 05:16:43;;;;;;;18.10;11.75;;;1.90;99.90;;;;;;5034003;28;20081;-73
2022/03/01 05:19:09;;;;;;;19.85;12.20;;;2.20;99.90;;;;;;5033112;28;20150;-73
2022/03/01 05:21:36;;;;;;;21.17;11.43;;;2.10;99.90;;;;;;5033063;28;20049;-72
2022/03/01 05:24:03;;;;;;;20.48;12.55;;;2.40;99.90;;;;;;5016628;28;20124;-73
2022/03/01 05:26:29;;;;;;;18.70;11.95;;;2.10;99.90;;;;;;5016481;28;20048;-73
2022/03/01 05:28:55;;;;;;;19.63;12.68;;;2.40;99.90;;;;;;5032973;28;20037;-72
2022/03/01 05:31:21;;;;;;;19.13;12.27;;;2.50;99.90;;;;;;5032732;28;20061;-72
2022/03/01 05:33:47;;;;;;;22.10;11.77;;;2.10;99.90;;;;;;5016645;28;20037;-72
2022/03/01 05:36:16;;;;;;;19.05;11.73;;;2.40;99.90;;;;;;5016506;28;20041;-73
2022/03/01 05:38:43;;;;;;;17.02;10.55;;;2.30;99.90;;;;;;5032805;28;20091;-72
2022/03/01 05:41:09;;;;;;;19.45;11.68;;;2.50;99.90;;;;;;5032720;28;20059;-72
2022/03/01 05:43:36;;;;;;;17.35;12.27;;;2.30;99.90;;;;;;5033138;28;20486;-73
2022/03/01 05:46:02;;;;;;;21.30;12.80;;;2.30;99.90;;;;;;5032492;28;20045;-73
2022/03/01 05:48:28;;;;;;;20.17;11.85;;;2.50;99.90;;;;;;5016165;28;20552;-72
2022/03/01 05:50:55;;;;;;;20.40;11.80;;;2.30;99.90;;;;;;5032867;28;20041;-72
2022/03/01 05:53:21;;;;;;;18.23;11.50;;;2.50;99.90;;;;;;5032565;28;20037;-72
2022/03/01 05:55:48;;;;;;;19.73;12.75;;;2.30;99.90;;;;;;5016087;28;20455;-72
2022/03/01 05:58:14;;;;;;;18.83;11.20;;;2.30;99.90;;;;;;5032427;28;20045;-73
2022/03/01 06:00:40;;;;;;;19.65;12.45;;;2.20;99.90;;;;;;5015810;28;20056;-73
2022/03/01 06:03:05;;;;;;;18.52;12.20;;;2.50;99.90;;;;;;5016214;28;20045;-72
2022/03/01 06:05:31;;;;;;;18.50;11.60;;;2.20;99.90;;;;;;5032286;28;20413;-73
2022/03/01 06:07:58;;;;;;;18.35;11.13;;;2.30;99.90;;;;;;5015913;28;20096;-73
2022/03/01 06:10:25;;;;;;;18.60;11.88;;;2.20;99.90;;;;;;5032526;28;20045;-72
2022/03/01 06:12:50;;;;;;;19.08;12.48;;;2.00;99.90;;;;;;5032684;28;20037;-71
2022/03/01 06:15:16;;;;;;;19.73;12.93;;;2.20;99.90;;;;;;5032130;28;20048;-74
2022/03/01 06:17:42;;;;;;;20.17;12.50;;;2.00;99.90;;;;;;5032107;28;20520;-71
2022/03/01 06:20:10;;;;;;;19.42;12.38;;;2.00;99.90;;;;;;5015882;28;20049;-73
2022/03/01 06:22:36;;;;;;;18.60;12.10;;;2.00;99.90;;;;;;5015774;28;20397;-73
2022/03/01 06:25:03;;;;;;;18.65;11.88;;;2.10;99.90;;;;;;5031888;28;20045;-73
2022/03/01 06:27:29;;;;;;;18.85;12.40;;;1.90;99.90;;;;;;5031918;28;20080;-73
2022/03/01 06:29:54;;;;;;;21.02;13.57;;;2.20;99.90;;;;;;5032124;28;20042;-73
2022/03/01 06:32:20;;;;;;;17.58;11.98;;;2.70;99.90;;;;;;5031648;28;20062;-72
2022/03/01 06:34:46;;;;;;;19.23;12.55;;;2.10;99.90;;;;;;5031663;28;20046;-73
2022/03/01 06:37:15;;;;;;;18.63;12.52;;;2.10;99.90;;;;;;5031676;28;20044;-73
2022/03/01 06:39:42;;;;;;;20.80;12.55;;;2.00;99.90;;;;;;5031568;28;20045;-72
2022/03/01 06:42:09;;;;;;;19.65;12.05;;;1.90;99.90;;;;;;5031482;28;20057;-72
2022/03/01 06:44:36;;;;;;;26.35;13.43;;;1.90;99.90;;;;;;5031786;28;20084;-72
2022/03/01 06:47:03;;;;;;;24.98;12.68;;;2.50;99.90;;;;;;5031424;28;20041;-73
2022/03/01 06:49:28;;;;;;;19.00;12.57;;;2.10;99.90;;;;;;5031440;28;20041;-74
2022/03/01 06:51:54;;;;;;;20.98;13.07;;;2.20;99.90;;;;;;5031492;28;20408;-73
2022/03/01 06:54:20;;;;;;;20.80;13.65;;;2.10;99.90;;;;;;5032722;28;20447;-72
2022/03/01 06:56:47;;;;;;;24.95;12.77;;;2.10;99.90;;;;;;5031464;28;20126;-73
2022/03/01 06:59:16;;;;;;;21.73;13.07;;;2.30;99.90;;;;;;5014488;28;20050;-74
2022/03/01 07:01:42;;;;;;;24.25;14.20;;;2.10;99.90;;;;;;5014869;28;20041;-74
2022/03/01 07:04:07;;;;;;;22.35;14.35;;;2.10;99.90;;;;;;5014979;28;20041;-73
2022/03/01 07:06:33;;;;;;;19.35;13.05;;;2.40;99.90;;;;;;4998612;28;20045;-74
2022/03/01 07:08:59;;;;;;;20.40;13.20;;;2.20;99.90;;;;;;5014807;28;20034;-73
2022/03/01 07:11:25;;;;;;;32.78;14.35;;;2.20;99.90;;;;;;5031310;28;20552;-73
2022/03/01 07:13:51;;;;;;;22.23;13.30;;;2.50;99.90;;;;;;5014749;28;20044;-73
2022/03/01 07:16:17;;;;;;;21.30;13.40;;;2.40;99.90;;;;;;5014731;28;20401;-73
2022/03/01 07:18:43;;;;;;;20.92;14.13;;;2.20;99.90;;;;;;5031242;28;20048;-74
2022/03/01 07:21:09;;;;;;;21.00;12.35;;;2.40;99.90;;;;;;5014286;28;20053;-73
2022/03/01 07:23:35;;;;;;;21.95;13.20;;;1.80;99.90;;;;;;5014385;28;20045;-73
2022/03/01 07:26:04;;;;;;;23.63;13.23;;;2.60;99.90;;;;;;5030744;28;20185;-73
2022/03/01 07:28:30;;;;;;;18.70;12.25;;;2.80;99.90;;;;;;5031174;28;20050;-73
2022/03/01 07:30:56;;;;;;;19.55;12.50;;;2.70;99.90;;;;;;5030766;28;20141;-73
2022/03/01 07:33:22;;;;;;;20.98;12.85;;;3.10;99.90;;;;;;5014252;28;20038;-74
2022/03/01 07:35:47;;;;;;;21.35;12.65;;;2.70;99.90;;;;;;5014349;28;20037;-73
2022/03/01 07:38:13;;;;;;;18.88;12.13;;;2.80;99.90;;;;;;5014361;28;20057;-74
2022/03/01 07:40:39;;;;;;;19.95;11.93;;;3.10;99.90;;;;;;5031218;28;20428;-74
2022/03/01 07:43:07;;;;;;;19.95;11.93;;;3.40;99.90;;;;;;4997939;28;20052;-73
2022/03/01 07:45:33;;;;;;;20.02;11.95;;;;;;;;;;5030424;28;20045;-73
2022/03/01 07:48:00;;;;;;;21.35;13.35;;;3.00;99.90;;;;;;5030569;28;20041;-72
2022/03/01 07:50:26;;;;;;;20.73;12.88;;;3.20;99.90;;;;;;5030474;28;20050;-73
2022/03/01 07:52:52;;;;;;;20.75;12.18;;;3.10;99.90;;;;;;5030323;28;20528;-73
2022/03/01 07:55:19;;;;;;;21.75;12.20;;;3.30;99.90;;;;;;5030562;28;20402;-73
2022/03/01 07:57:44;;;;;;;23.15;12.55;;;3.50;99.90;;;;;;5030386;28;20086;-72
2022/03/01 08:00:10;;;;;;;19.45;13.27;;;3.30;99.90;;;;;;4997383;28;20091;-72
2022/03/01 08:02:37;;;;;;;19.38;12.50;;;3.40;99.90;;;;;;5014348;28;20080;-72
2022/03/01 08:05:05;;;;;;;20.40;12.75;;;3.60;99.90;;;;;;5013746;28;20041;-73
2022/03/01 08:07:31;;;;;;;19.80;12.45;;;3.60;99.90;;;;;;5030059;28;20273;-73
2022/03/01 08:09:56;;;;;;;23.05;13.95;;;3.70;99.90;;;;;;5030610;28;20073;-73
2022/03/01 08:12:22;;;;;;;21.20;13.43;;;3.80;99.90;;;;;;5017919;28;20492;-72
2022/03/01 08:14:48;;;;;;;20.65;13.02;;;3.80;99.90;;;;;;5018309;28;20041;-73
2022/03/01 08:17:14;;;;;;;18.08;11.80;;;3.90;99.90;;;;;;5034579;28;20095;-74
2022/03/01 08:19:40;;;;;;;17.73;12.95;;;3.80;99.90;;;;;;5034280;28;20045;-74
2022/03/01 08:22:05;;;;;;;21.48;12.40;;;3.90;99.90;;;;;;5034130;28;20497;-73
2022/03/01 08:24:31;;;;;;;18.98;12.65;;;3.90;99.90;;;;;;5034663;28;20049;-74
2022/03/01 08:26:57;;;;;;;21.50;13.20;;;4.00;99.90;;;;;;5033937;28;20103;-73
2022/03/01 08:29:23;;;;;;;21.13;12.85;;;5.40;99.90;;;;;;5001487;28;20421;-73
2022/03/01 08:31:48;;;;;;;18.48;12.20;;;4.00;99.90;;;;;;5017348;28;20053;-73
2022/03/01 08:34:14;;;;;;;19.25;13.30;;;4.10;99.90;;;;;;5033928;28;20446;-73
2022/03/01 08:36:40;;;;;;;20.70;13.05;;;4.10;99.90;;;;;;5017427;28;20038;-73
2022/03/01 08:39:05;;;;;;;18.88;12.60;;;4.20;99.90;;;;;;5017867;28;20509;-73
2022/03/01 08:41:31;;;;;;;19.58;13.05;;;4.40;99.90;;;;;;5017559;28;20045;-73
2022/03/01 08:43:57;;;;;;;20.58;13.13;;;4.30;99.90;;;;;;5033896;28;20045;-73
2022/03/01 08:46:26;;;;;;;22.10;12.85;;;4.40;99.90;;;;;;5033809;28;20128;-73
2022/03/01 08:48:53;;;;;;;18.52;12.60;;;4.50;99.90;;;;;;5017801;28;20055;-73
2022/03/01 08:51:23;;;;;;;22.35;13.32;;;4.50;99.90;;;;;;5033945;28;20370;-73
2022/03/01 08:53:50;;;;;;;19.80;12.07;;;4.60;99.90;;;;;;5034032;28;20481;-73
2022/03/01 08:56:16;;;;;;;20.73;13.60;;;4.70;99.90;;;;;;5033723;28;20038;-73
2022/03/01 08:58:45;;;;;;;20.42;11.48;;;4.80;99.90;;;;;;5017095;28;20053;-73
2022/03/01 09:01:12;;;;;;;21.85;13.57;;;4.90;99.90;;;;;;5033739;28;20128;-73
2022/03/01 09:03:38;;;;;;;20.67;12.50;;;5.20;99.90;;;;;;5033573;28;20042;-73
2022/03/01 09:06:05;;;;;;;19.02;10.23;;;5.90;99.90;;;;;;5033488;28;20064;-73
2022/03/01 09:08:32;;;;;;;19.42;12.57;;;5.30;99.90;;;;;;5017159;28;20068;-73
2022/03/01 09:10:59;;;;;;;16.45;10.55;;;5.10;99.90;;;;;;5033415;28;20087;-74
2022/03/01 09:13:24;;;;;;;20.35;11.80;;;5.40;99.90;;;;;;5016797;28;20099;-74
2022/03/01 09:15:50;;;;;;;18.23;12.18;;;5.90;99.90;;;;;;5033175;28;20124;-72
2022/03/01 09:18:16;;;;;;;19.67;12.25;;;5.30;99.90;;;;;;5033320;28;20038;-72
2022/03/01 09:20:41;;;;;;;21.67;12.45;;;5.40;99.90;;;;;;5032670;28;20046;-72
2022/03/01 09:23:07;;;;;;;16.33;11.60;;;6.00;99.90;;;;;;5016751;28;20405;-73
2022/03/01 09:25:33;;;;;;;17.70;13.38;;;5.70;99.90;;;;;;5033477;28;20508;-72
2022/03/01 09:27:59;;;;;;;19.88;12.00;;;6.10;99.90;;;;;;5033097;28;20046;-73
2022/03/01 09:30:25;;;;;;;17.63;11.45;;;5.90;99.90;;;;;;5032843;28;20157;-73
2022/03/01 09:32:50;;;;;;;15.63;10.20;;;6.10;99.90;;;;;;5033011;28;20120;-73
2022/03/01 09:35:17;;;;;;;16.50;11.05;;;6.00;99.90;;;;;;5032979;28;20473;-72
2022/03/01 09:37:43;;;;;;;20.73;11.55;;;6.10;99.90;;;;;;5032962;28;20081;-73
2022/03/01 09:40:11;;;;;;;15.75;11.18;;;6.60;99.90;;;;;;5033525;28;20045;-72
2022/03/01 09:42:39;;;;;;;16.83;11.70;;;6.30;99.90;;;;;;5033049;28;20045;-73
2022/03/01 09:45:06;;;;;;;15.02;10.90;;;6.30;99.90;;;;;;5032867;28;20057;-73
2022/03/01 09:47:31;;;;;;;17.92;11.73;;;6.40;99.90;;;;;;5032606;28;20038;-73
2022/03/01 09:49:57;;;;;;;17.55;11.25;;;6.40;99.90;;;;;;5016555;28;20091;-73
2022/03/01 09:52:23;;;;;;;17.60;11.27;;;6.50;99.90;;;;;;5032870;28;20035;-74
2022/03/01 09:54:50;;;;;;;18.67;10.32;;;6.60;99.90;;;;;;5000198;28;20037;-73
2022/03/01 09:57:17;;;;;;;17.27;11.32;;;6.90;99.90;;;;;;5032433;28;20057;-74
2022/03/01 09:59:43;;;;;;;16.15;11.05;;;6.70;99.90;;;;;;5032365;28;20038;-74
2022/03/01 10:02:09;;;;;;;17.60;11.57;;;7.00;99.90;;;;;;5032557;28;20394;-73
2022/03/01 10:04:54;;;;;;;15.75;11.13;;;6.80;99.90;;;;;;4999522;28;20045;-72
2022/03/01 10:07:28;;;;;;;16.15;10.73;;;6.50;99.90;;;;;;5032494;28;20042;-73
2022/03/01 10:10:01;;;;;;;20.17;11.05;;;7.30;99.90;;;;;;5032483;28;20037;-74
2022/03/01 10:12:28;;;;;;;15.45;10.93;;;6.50;99.90;;;;;;5032735;28;20042;-73
2022/03/01 10:15:02;;;;;;;18.95;10.57;;;6.70;99.90;;;;;;5032080;28;20037;-72
2022/03/01 10:17:40;;;;;;;18.27;10.95;;;7.00;99.90;;;;;;5032137;28;20049;-73
2022/03/01 10:20:24;;;;;;;17.55;11.20;;;6.70;99.90;;;;;;5015733;28;20060;-73
2022/03/01 10:22:52;;;;;;;16.90;10.68;;;6.80;99.90;;;;;;5032535;28;20119;-73
2022/03/01 10:25:22;;;;;;;18.95;11.23;;;6.90;99.90;;;;;;5031995;28;20041;-73
2022/03/01 10:27:50;;;;;;;18.60;11.77;;;7.00;99.90;;;;;;5031909;28;20053;-73
2022/03/01 10:30:31;;;;;;;15.70;10.70;;;7.20;99.90;;;;;;5032152;28;20088;-73
2022/03/01 10:33:12;;;;;;;19.30;11.27;;;7.30;99.90;;;;;;5031041;28;20045;-74
2022/03/01 10:35:39;;;;;;;15.02;11.02;;;;;;;;;;5031905;28;20063;-73
2022/03/01 10:38:06;;;;;;;17.05;10.90;;;;;;;;;;5031903;28;20045;-73
2022/03/01 10:40:34;;;;;;;16.48;11.35;;;7.80;99.90;;;;;;5015137;28;20045;-73
2022/03/01 10:43:08;;;;;;;18.25;11.00;;;8.00;99.90;;;;;;5031660;28;20045;-73
2022/03/01 10:45:37;;;;;;;17.27;11.20;;;8.20;99.90;;;;;;5015217;28;20041;-73
2022/03/01 10:48:04;;;;;;;15.85;11.45;;;8.20;99.90;;;;;;5015108;28;20052;-73
2022/03/01 10:50:30;;;;;;;16.60;11.35;;;8.50;99.90;;;;;;5031627;28;20045;-73
2022/03/01 10:52:56;;;;;;;15.73;11.27;;;8.70;99.90;;;;;;5031429;28;20037;-73
2022/03/01 10:55:27;;;;;;;17.77;11.88;;;;;;;;;;5015351;28;20041;-73
2022/03/01 10:58:01;;;;;;;18.52;11.35;;;8.90;99.90;;;;;;5031706;28;20392;-73
2022/03/01 11:00:27;;;;;;;19.00;10.93;;;9.40;99.90;;;;;;5031383;28;20037;-73
2022/03/01 11:02:53;;;;;;;18.23;10.85;;;9.50;99.90;;;;;;5031351;28;20045;-73
2022/03/01 11:05:19;;;;;;;18.13;11.10;;;;;;;;;;5014873;28;20379;-73
2022/03/01 11:07:48;;;;;;;18.13;11.98;;;9.70;99.90;;;;;;5014721;28;20045;-73
2022/03/01 11:10:15;;;;;;;16.42;10.50;;;9.80;99.90;;;;;;5031174;28;20040;-73
2022/03/01 11:12:43;;;;;;;16.10;10.85;;;9.80;99.90;;;;;;5014809;28;20052;-73
2022/03/01 11:15:38;;;;;;;15.77;11.57;;;9.80;99.90;;;;;;5014792;28;20030;-72
2022/03/01 11:18:16;;;;;;;17.73;11.82;;;9.70;99.90;;;;;;5014566;28;20045;-73
2022/03/01 11:20:46;;;;;;;15.70;10.98;;;9.80;99.90;;;;;;5031079;28;20051;-73
2022/03/01 11:23:14;;;;;;;15.48;10.98;;;9.80;99.90;;;;;;5030971;28;20087;-73
2022/03/01 11:25:47;;;;;;;15.90;11.18;;;9.90;99.90;;;;;;5030812;28;20057;-73
2022/03/01 11:28:14;;;;;;;16.55;11.43;;;9.90;99.90;;;;;;5031141;28;20045;-74
2022/03/01 11:30:45;;;;;;;17.95;11.43;;;9.90;99.90;;;;;;5014157;28;20065;-73
2022/03/01 11:33:11;;;;;;;17.08;12.32;;;9.90;99.90;;;;;;5014771;28;20103;-73
2022/03/01 11:35:50;;;;;;;15.60;11.50;;;9.80;99.90;;;;;;5030733;28;20045;-71
2022/03/01 11:38:17;;;;;;;16.42;11.23;;;9.80;99.90;;;;;;5030639;28;20041;-72
2022/03/01 11:40:50;;;;;;;15.50;11.25;;;9.80;99.90;;;;;;5030803;28;20045;-72
2022/03/01 11:43:22;;;;;;;19.40;12.10;;;9.80;99.90;;;;;;5030955;28;20037;-72
2022/03/01 11:45:54;;;;;;;16.55;12.00;;;9.80;99.90;;;;;;5014042;28;20072;-72
2022/03/01 11:48:22;;;;;;;17.15;12.60;;;9.80;99.90;;;;;;5030843;28;20045;-72
2022/03/01 11:50:54;;;;;;;15.85;11.82;;;9.70;99.90;;;;;;5013842;28;20038;-72
2022/03/01 11:53:22;;;;;;;16.80;11.70;;;9.70;99.90;;;;;;5030993;28;20045;-72
2022/03/01 11:55:53;;;;;;;15.07;11.25;;;9.70;99.90;;;;;;5030447;28;20073;-72
2022/03/01 11:58:20;;;;;;;17.58;11.45;;;9.60;99.90;;;;;;5014061;28;20045;-73
2022/03/01 12:00:48;;;;;;;16.70;11.73;;;9.80;99.90;;;;;;5014135;28;20080;-72
2022/03/01 12:03:16;;;;;;;15.73;11.93;;;9.80;99.90;;;;;;5030627;28;20073;-72
2022/03/01 12:05:46;;;;;;;16.00;11.73;;;9.90;99.90;;;;;;5030392;28;20049;-72
2022/03/01 12:08:15;;;;;;;16.95;12.40;;;10.10;99.90;;;;;;5030292;28;20401;-73
2022/03/01 12:11:07;;;;;;;20.30;12.18;;;10.20;99.90;;;;;;5013746;28;20132;-72
2022/03/01 12:13:42;;;;;;;15.80;12.13;;;10.40;99.90;;;;;;5030363;28;20053;-72
2022/03/01 12:16:09;;;;;;;15.35;11.88;;;10.40;99.90;;;;;;5030428;28;20158;-72
2022/03/01 12:18:38;;;;;;;15.48;11.52;;;10.50;99.90;;;;;;5014234;28;20502;-72
2022/03/01 12:21:07;;;;;;;18.08;11.93;;;10.50;99.90;;;;;;5030351;28;20049;-72
2022/03/01 12:23:34;;;;;;;15.57;12.30;;;10.50;99.90;;;;;;5030518;28;20049;-72
2022/03/01 12:26:07;;;;;;;16.70;11.48;;;10.60;99.90;;;;;;5030357;28;20049;-71
2022/03/01 12:28:41;;;;;;;17.15;11.57;;;10.60;99.90;;;;;;5014154;28;20053;-72
2022/03/01 12:31:11;;;;;;;18.83;11.65;;;10.80;99.90;;;;;;5030067;28;20108;-72
2022/03/01 12:33:50;;;;;;;18.35;12.85;;;10.80;99.90;;;;;;5030607;28;20099;-72
2022/03/01 12:36:34;;;;;;;17.42;12.30;;;10.80;99.90;;;;;;5030741;28;20040;-72
2022/03/01 12:39:20;;;;;;;16.90;12.20;;;10.90;99.90;;;;;;5030257;28;20049;-72
2022/03/01 12:41:47;;;;;;;25.98;12.35;;;10.80;99.90;;;;;;5013907;28;20053;-72
2022/03/01 12:44:14;;;;;;;14.90;11.30;;;10.70;99.90;;;;;;5013760;28;20044;-72
2022/03/01 12:46:41;;;;;;;17.85;12.38;;;10.70;99.90;;;;;;5013767;28;20041;-72
2022/03/01 12:49:10;;;;;;;16.13;11.52;;;10.80;99.90;;;;;;5013561;28;20053;-72